createdAt,value
2016-04-11T00:00:19.834Z,946.31
2016-04-11T00:01:19.773Z,946.31
2016-04-11T00:02:19.714Z,946.34
2016-04-11T00:03:19.654Z,946.35
2016-04-11T00:04:19.594Z,946.37
2016-04-11T00:05:19.550Z,946.38
2016-04-11T00:06:19.489Z,946.38
2016-04-11T00:07:19.431Z,946.36
2016-04-11T00:08:19.386Z,946.35
2016-04-11T00:09:19.326Z,946.39
2016-04-11T00:10:19.267Z,946.35
2016-04-11T00:11:19.223Z,946.36
2016-04-11T00:12:19.162Z,946.34
2016-04-11T00:13:19.102Z,946.34
2016-04-11T00:14:19.058Z,946.36
2016-04-11T00:15:19.015Z,946.37
2016-04-11T00:16:18.940Z,946.39
2016-04-11T00:17:18.895Z,946.36
2016-04-11T00:18:18.836Z,946.33
2016-04-11T00:19:18.776Z,946.33
2016-04-11T00:20:18.732Z,946.37
2016-04-11T00:21:18.672Z,946.34
2016-04-11T00:22:18.628Z,946.36
2016-04-11T00:23:18.553Z,946.41
2016-04-11T00:24:18.508Z,946.35
2016-04-11T00:25:18.448Z,946.37
2016-04-11T00:26:18.388Z,946.37
2016-04-11T00:27:18.344Z,946.38
2016-04-11T00:28:18.285Z,946.4
2016-04-11T00:29:18.225Z,946.42
2016-04-11T00:30:18.180Z,946.43
2016-04-11T00:31:18.121Z,946.41
2016-04-11T00:32:18.077Z,946.44
2016-04-11T00:33:18.010Z,946.41
2016-04-11T00:34:17.958Z,946.41
2016-04-11T00:35:18.008Z,946.41
2016-04-11T00:36:17.843Z,946.41
2016-04-11T00:37:17.783Z,946.43
2016-04-11T00:38:17.724Z,946.46
2016-04-11T00:39:17.680Z,946.45
2016-04-11T00:40:17.619Z,946.5
2016-04-11T00:41:17.560Z,946.53
2016-04-11T00:42:17.546Z,946.53
2016-04-11T00:43:17.455Z,946.48
2016-04-11T00:44:17.396Z,946.5
2016-04-11T00:45:17.352Z,946.48
2016-04-11T00:46:17.292Z,946.51
2016-04-11T00:47:17.248Z,946.49
2016-04-11T00:48:17.173Z,946.45
2016-04-11T00:49:17.129Z,946.52
2016-04-11T00:50:17.068Z,946.55
2016-04-11T00:51:17.009Z,946.53
2016-04-11T00:52:16.965Z,946.54
2016-04-11T00:53:16.905Z,946.55
2016-04-11T00:54:16.845Z,946.57
2016-04-11T00:55:16.801Z,946.55
2016-04-11T00:56:16.740Z,946.58
2016-04-11T00:57:16.697Z,946.57
2016-04-11T00:58:16.637Z,946.6
2016-04-11T00:59:16.577Z,946.53
2016-04-11T01:00:16.517Z,946.53
2016-04-11T01:01:16.458Z,946.56
2016-04-11T01:02:16.413Z,946.62
2016-04-11T01:03:16.353Z,946.61
2016-04-11T01:04:16.293Z,946.59
2016-04-11T01:05:16.249Z,946.62
2016-04-11T01:06:16.189Z,946.57
2016-04-11T01:07:16.130Z,946.57
2016-04-11T01:08:16.086Z,946.58
2016-04-11T01:09:16.026Z,946.55
2016-04-11T01:10:15.971Z,946.58
2016-04-11T01:11:15.927Z,946.54
2016-04-11T01:12:15.866Z,946.56
2016-04-11T01:13:15.807Z,946.5
2016-04-11T01:14:15.747Z,946.55
2016-04-11T01:15:15.703Z,946.57
2016-04-11T01:16:15.644Z,946.56
2016-04-11T01:17:15.584Z,946.54
2016-04-11T01:18:15.540Z,946.56
2016-04-11T01:19:15.495Z,946.57
2016-04-11T01:20:15.420Z,946.51
2016-04-11T01:21:15.376Z,946.56
2016-04-11T01:22:15.315Z,946.58
2016-04-11T01:23:15.256Z,946.57
2016-04-11T01:24:15.195Z,946.59
2016-04-11T01:25:15.151Z,946.62
2016-04-11T01:26:15.092Z,946.59
2016-04-11T01:27:15.032Z,946.58
2016-04-11T01:28:14.988Z,946.58
2016-04-11T01:29:14.928Z,946.57
2016-04-11T01:30:14.884Z,946.58
2016-04-11T01:31:14.824Z,946.57
2016-04-11T01:32:14.764Z,946.59
2016-04-11T01:33:14.705Z,946.67
2016-04-11T01:34:14.661Z,946.65
2016-04-11T01:35:14.616Z,946.55
2016-04-11T01:36:14.541Z,946.55
2016-04-11T01:37:14.496Z,946.57
2016-04-11T01:38:14.436Z,946.61
2016-04-11T01:39:14.377Z,946.64
2016-04-11T01:40:14.332Z,946.64
2016-04-11T01:41:14.274Z,946.56
2016-04-11T01:42:14.213Z,946.49
2016-04-11T01:43:14.154Z,946.52
2016-04-11T01:44:14.109Z,946.54
2016-04-11T01:45:14.049Z,946.55
2016-04-11T01:46:13.990Z,946.56
2016-04-11T01:47:13.946Z,946.58
2016-04-11T01:48:13.885Z,946.58
2016-04-11T01:49:13.826Z,946.61
2016-04-11T01:50:13.765Z,946.62
2016-04-11T01:51:13.721Z,946.64
2016-04-11T01:52:13.662Z,946.64
2016-04-11T01:53:13.618Z,946.63
2016-04-11T01:54:13.559Z,946.67
2016-04-11T01:55:13.514Z,946.67
2016-04-11T01:56:13.439Z,946.65
2016-04-11T01:57:13.409Z,946.65
2016-04-11T01:58:13.334Z,946.64
2016-04-11T01:59:13.275Z,946.64
2016-04-11T02:00:13.214Z,946.61
2016-04-11T02:01:13.186Z,946.62
2016-04-11T02:02:13.110Z,946.61
2016-04-11T02:03:13.066Z,946.6
2016-04-11T02:04:12.991Z,946.57
2016-04-11T02:05:12.947Z,946.63
2016-04-11T02:06:12.886Z,946.59
2016-04-11T02:07:12.828Z,946.64
2016-04-11T02:08:12.783Z,946.6
2016-04-11T02:09:12.724Z,946.64
2016-04-11T02:10:12.663Z,946.68
2016-04-11T02:11:12.635Z,946.65
2016-04-11T02:12:12.560Z,946.67
2016-04-11T02:13:12.515Z,946.73
2016-04-11T02:14:12.455Z,946.65
2016-04-11T02:15:12.395Z,946.7
2016-04-11T02:16:12.336Z,946.71
2016-04-11T02:17:12.276Z,946.71
2016-04-11T02:18:12.232Z,946.74
2016-04-11T02:19:12.171Z,946.75
2016-04-11T02:20:12.113Z,946.72
2016-04-11T02:21:12.052Z,946.72
2016-04-11T02:22:11.992Z,946.72
2016-04-11T02:23:11.948Z,946.77
2016-04-11T02:24:11.889Z,946.76
2016-04-11T02:25:11.829Z,946.8
2016-04-11T02:26:11.784Z,946.78
2016-04-11T02:27:11.725Z,946.74
2016-04-11T02:28:11.664Z,946.74
2016-04-11T02:29:11.620Z,946.71
2016-04-11T02:30:11.561Z,946.75
2016-04-11T02:31:11.501Z,946.71
2016-04-11T02:32:11.456Z,946.77
2016-04-11T02:33:11.398Z,946.75
2016-04-11T02:34:11.337Z,946.76
2016-04-11T02:35:11.278Z,946.72
2016-04-11T02:36:11.217Z,946.72
2016-04-11T02:37:11.174Z,946.7
2016-04-11T02:38:11.130Z,946.75
2016-04-11T02:39:11.055Z,946.72
2016-04-11T02:40:11.010Z,946.74
2016-04-11T02:41:10.950Z,946.74
2016-04-11T02:42:10.890Z,946.71
2016-04-11T02:43:10.846Z,946.77
2016-04-11T02:44:10.785Z,946.72
2016-04-11T02:45:10.726Z,946.73
2016-04-11T02:46:10.682Z,946.69
2016-04-11T02:47:10.607Z,946.74
2016-04-11T02:48:10.563Z,946.73
2016-04-11T02:49:10.502Z,946.7
2016-04-11T02:50:10.442Z,946.69
2016-04-11T02:51:10.382Z,946.72
2016-04-11T02:52:10.339Z,946.69
2016-04-11T02:53:10.279Z,946.71
2016-04-11T02:54:10.219Z,946.67
2016-04-11T02:55:10.159Z,946.7
2016-04-11T02:56:10.114Z,946.72
2016-04-11T02:57:10.056Z,946.71
2016-04-11T02:58:09.995Z,946.69
2016-04-11T02:59:09.936Z,946.68
2016-04-11T03:00:09.892Z,946.69
2016-04-11T03:01:09.832Z,946.71
2016-04-11T03:02:09.772Z,946.71
2016-04-11T03:03:09.727Z,946.72
2016-04-11T03:04:09.667Z,946.74
2016-04-11T03:05:09.608Z,946.73
2016-04-11T03:06:09.548Z,946.78
2016-04-11T03:07:09.488Z,946.74
2016-04-11T03:08:09.428Z,946.72
2016-04-11T03:09:09.384Z,946.73
2016-04-11T03:10:09.324Z,946.78
2016-04-11T03:11:09.280Z,946.74
2016-04-11T03:12:09.283Z,946.77
2016-04-11T03:13:09.160Z,946.79
2016-04-11T03:14:09.102Z,946.74
2016-04-11T03:15:09.041Z,946.75
2016-04-11T03:16:08.982Z,946.73
2016-04-11T03:17:08.937Z,946.73
2016-04-11T03:18:08.893Z,946.71
2016-04-11T03:19:08.818Z,946.7
2016-04-11T03:20:08.757Z,946.7
2016-04-11T03:21:08.713Z,946.72
2016-04-11T03:22:08.654Z,946.73
2016-04-11T03:23:08.593Z,946.71
2016-04-11T03:24:08.534Z,946.71
2016-04-11T03:25:08.474Z,946.72
2016-04-11T03:26:08.430Z,946.69
2016-04-11T03:27:08.370Z,946.69
2016-04-11T03:28:08.311Z,946.72
2016-04-11T03:29:08.267Z,946.69
2016-04-11T03:30:08.206Z,946.7
2016-04-11T03:31:08.147Z,946.7
2016-04-11T03:32:08.086Z,946.68
2016-04-11T03:33:08.042Z,946.69
2016-04-11T03:34:07.983Z,946.71
2016-04-11T03:35:07.923Z,946.68
2016-04-11T03:36:07.878Z,946.7
2016-04-11T03:37:07.819Z,946.65
2016-04-11T03:38:07.758Z,946.63
2016-04-11T03:39:07.700Z,946.61
2016-04-11T03:40:07.639Z,946.62
2016-04-11T03:41:07.580Z,946.63
2016-04-11T03:42:07.536Z,946.63
2016-04-11T03:43:07.477Z,946.62
2016-04-11T03:44:07.416Z,946.59
2016-04-11T03:45:07.372Z,946.61
2016-04-11T03:46:07.296Z,946.58
2016-04-11T03:47:07.252Z,946.57
2016-04-11T03:48:07.193Z,946.59
2016-04-11T03:49:07.133Z,946.62
2016-04-11T03:50:07.073Z,946.64
2016-04-11T03:51:07.029Z,946.61
2016-04-11T03:52:06.968Z,946.57
2016-04-11T03:53:06.909Z,946.54
2016-04-11T03:54:06.865Z,946.58
2016-04-11T03:55:06.804Z,946.55
2016-04-11T03:56:06.745Z,946.61
2016-04-11T03:57:06.701Z,946.62
2016-04-11T03:58:06.626Z,946.62
2016-04-11T03:59:06.581Z,946.63
2016-04-11T04:00:06.522Z,946.65
2016-04-11T04:01:06.461Z,946.62
2016-04-11T04:02:06.403Z,946.6
2016-04-11T04:03:06.342Z,946.62
2016-04-11T04:04:06.298Z,946.62
2016-04-11T04:05:06.238Z,946.62
2016-04-11T04:06:06.178Z,946.6
2016-04-11T04:07:06.118Z,946.64
2016-04-11T04:08:06.075Z,946.61
2016-04-11T04:09:06.014Z,946.65
2016-04-11T04:10:05.955Z,946.68
2016-04-11T04:11:05.894Z,946.67
2016-04-11T04:12:05.836Z,946.66
2016-04-11T04:13:05.791Z,946.68
2016-04-11T04:14:05.731Z,946.72
2016-04-11T04:15:05.671Z,946.69
2016-04-11T04:16:05.611Z,946.65
2016-04-11T04:17:05.568Z,946.69
2016-04-11T04:18:05.508Z,946.69
2016-04-11T04:19:05.448Z,946.65
2016-04-11T04:20:05.388Z,946.7
2016-04-11T04:21:05.343Z,946.71
2016-04-11T04:22:05.284Z,946.68
2016-04-11T04:23:05.224Z,946.71
2016-04-11T04:24:05.198Z,946.68
2016-04-11T04:25:05.181Z,946.7
2016-04-11T04:26:05.181Z,946.7
2016-04-11T04:27:05.165Z,946.72
2016-04-11T04:28:05.149Z,946.68
2016-04-11T04:29:05.112Z,946.66
2016-04-11T04:30:05.067Z,946.67
2016-04-11T04:31:05.038Z,946.64
2016-04-11T04:32:04.996Z,946.68
2016-04-11T04:33:04.951Z,946.66
2016-04-11T04:34:04.899Z,946.69
2016-04-11T04:35:04.860Z,946.67
2016-04-11T04:36:04.807Z,946.65
2016-04-11T04:37:04.753Z,946.64
2016-04-11T04:38:04.699Z,946.67
2016-04-11T04:39:04.642Z,946.68
2016-04-11T04:40:04.599Z,946.64
2016-04-11T04:41:04.542Z,946.64
2016-04-11T04:42:04.484Z,946.66
2016-04-11T04:43:04.426Z,946.68
2016-04-11T04:44:04.383Z,946.64
2016-04-11T04:45:04.323Z,946.65
2016-04-11T04:46:04.264Z,946.64
2016-04-11T04:47:04.205Z,946.65
2016-04-11T04:48:04.147Z,946.61
2016-04-11T04:49:04.103Z,946.64
2016-04-11T04:50:04.028Z,946.7
2016-04-11T04:51:03.984Z,946.67
2016-04-11T04:52:03.924Z,946.65
2016-04-11T04:53:03.865Z,946.69
2016-04-11T04:54:03.805Z,946.66
2016-04-11T04:55:03.745Z,946.65
2016-04-11T04:56:03.717Z,946.67
2016-04-11T04:57:03.642Z,946.68
2016-04-11T04:58:03.582Z,946.72
2016-04-11T04:59:03.522Z,946.71
2016-04-11T05:00:03.478Z,946.72
2016-04-11T05:01:03.417Z,946.74
2016-04-11T05:02:03.359Z,946.73
2016-04-11T05:03:03.298Z,946.7
2016-04-11T05:04:03.239Z,946.71
2016-04-11T05:05:03.195Z,946.71
2016-04-11T05:06:03.134Z,946.71
2016-04-11T05:07:03.075Z,946.74
2016-04-11T05:08:03.046Z,946.76
2016-04-11T05:09:02.955Z,946.71
2016-04-11T05:10:02.911Z,946.77
2016-04-11T05:11:02.851Z,946.76
2016-04-11T05:12:02.791Z,946.79
2016-04-11T05:13:02.747Z,946.8
2016-04-11T05:14:02.687Z,946.8
2016-04-11T05:15:02.627Z,946.82
2016-04-11T05:16:02.568Z,946.86
2016-04-11T05:17:02.524Z,946.8
2016-04-11T05:18:02.448Z,946.8
2016-04-11T05:19:02.404Z,946.82
2016-04-11T05:20:02.344Z,946.89
2016-04-11T05:21:02.284Z,946.84
2016-04-11T05:22:02.224Z,946.87
2016-04-11T05:23:02.177Z,946.88
2016-04-11T05:24:02.118Z,946.9
2016-04-11T05:25:02.057Z,946.9
2016-04-11T05:26:01.998Z,946.92
2016-04-11T05:27:01.954Z,946.91
2016-04-11T05:28:01.894Z,946.91
2016-04-11T05:29:01.835Z,946.91
2016-04-11T05:30:01.774Z,946.91
2016-04-11T05:31:01.731Z,946.96
2016-04-11T05:32:01.670Z,946.94
2016-04-11T05:33:01.611Z,946.97
2016-04-11T05:34:01.551Z,946.99
2016-04-11T05:35:01.506Z,946.97
2016-04-11T05:36:01.447Z,947
2016-04-11T05:37:01.403Z,946.99
2016-04-11T05:38:01.327Z,947.02
2016-04-11T05:39:01.283Z,947.06
2016-04-11T05:40:01.239Z,947.02
2016-04-11T05:41:01.163Z,947.07
2016-04-11T05:42:01.119Z,947.1
2016-04-11T05:43:01.060Z,947.06
2016-04-11T05:44:01.000Z,947.09
2016-04-11T05:45:00.956Z,947.1
2016-04-11T05:46:00.880Z,947.08
2016-04-11T05:47:00.836Z,947.08
2016-04-11T05:48:00.792Z,947.12
2016-04-11T05:49:00.716Z,947.05
2016-04-11T05:50:00.657Z,947.08
2016-04-11T05:51:00.612Z,947.05
2016-04-11T05:52:00.552Z,947.06
2016-04-11T05:53:00.493Z,947.05
2016-04-11T05:54:00.449Z,947.04
2016-04-11T05:55:00.388Z,947.11
2016-04-11T05:56:00.329Z,947.1
2016-04-11T05:57:00.269Z,947.08
2016-04-11T05:58:00.225Z,947.07
2016-04-11T05:59:00.181Z,947.11
2016-04-11T06:00:00.105Z,947.1
2016-04-11T06:01:00.062Z,947.12
2016-04-11T06:02:00.001Z,947.11
2016-04-11T06:02:59.942Z,947.12
2016-04-11T06:03:59.897Z,947.14
2016-04-11T06:04:59.837Z,947.07
2016-04-11T06:05:59.778Z,947.09
2016-04-11T06:06:59.718Z,947.07
2016-04-11T06:07:59.673Z,947.1
2016-04-11T06:08:59.615Z,947.07
2016-04-11T06:09:59.553Z,947.06
2016-04-11T06:10:59.494Z,947.02
2016-04-11T06:11:59.450Z,947.04
2016-04-11T06:12:59.390Z,947
2016-04-11T06:13:59.330Z,947.03
2016-04-11T06:14:59.270Z,947.06
2016-04-11T06:15:59.227Z,947.09
2016-04-11T06:16:59.183Z,947.06
2016-04-11T06:17:59.108Z,947.04
2016-04-11T06:18:59.047Z,947.07
2016-04-11T06:19:59.002Z,947.11
2016-04-11T06:20:58.944Z,947.09
2016-04-11T06:21:58.883Z,947.1
2016-04-11T06:22:58.823Z,947.11
2016-04-11T06:23:58.780Z,947.08
2016-04-11T06:24:58.719Z,947.11
2016-04-11T06:25:58.675Z,947.1
2016-04-11T06:26:58.600Z,947.08
2016-04-11T06:27:58.555Z,947.1
2016-04-11T06:28:58.496Z,947.06
2016-04-11T06:29:58.436Z,947.09
2016-04-11T06:30:58.392Z,947.03
2016-04-11T06:31:58.332Z,947.08
2016-04-11T06:32:58.273Z,947.1
2016-04-11T06:33:58.213Z,947.05
2016-04-11T06:34:58.168Z,947.05
2016-04-11T06:35:58.108Z,947
2016-04-11T06:36:58.049Z,946.98
2016-04-11T06:37:57.989Z,947.03
2016-04-11T06:38:57.944Z,947
2016-04-11T06:39:57.885Z,946.99
2016-04-11T06:40:57.825Z,946.98
2016-04-11T06:41:57.765Z,946.98
2016-04-11T06:42:57.753Z,947.02
2016-04-11T06:43:57.661Z,946.98
2016-04-11T06:44:57.601Z,946.96
2016-04-11T06:45:57.542Z,947.02
2016-04-11T06:46:57.497Z,947.01
2016-04-11T06:47:57.438Z,947.02
2016-04-11T06:48:57.394Z,946.99
2016-04-11T06:49:57.319Z,946.96
2016-04-11T06:50:57.274Z,946.98
2016-04-11T06:51:57.213Z,946.97
2016-04-11T06:52:57.155Z,946.97
2016-04-11T06:53:57.110Z,946.95
2016-04-11T06:54:57.049Z,946.99
2016-04-11T06:55:56.991Z,946.95
2016-04-11T06:56:56.930Z,946.96
2016-04-11T06:57:56.886Z,946.99
2016-04-11T06:58:56.827Z,947.03
2016-04-11T06:59:56.766Z,946.99
2016-04-11T07:00:56.723Z,947.02
2016-04-11T07:01:56.662Z,947.04
2016-04-11T07:02:56.603Z,947.03
2016-04-11T07:03:56.543Z,947.04
2016-04-11T07:04:56.499Z,947.06
2016-04-11T07:05:56.440Z,947.04
2016-04-11T07:06:56.379Z,947.06
2016-04-11T07:07:56.335Z,947.07
2016-04-11T07:08:56.276Z,947.07
2016-04-11T07:09:56.215Z,947.09
2016-04-11T07:10:56.171Z,947.1
2016-04-11T07:11:56.111Z,947.09
2016-04-11T07:12:56.114Z,947.09
2016-04-11T07:13:55.992Z,947.1
2016-04-11T07:14:55.947Z,947.13
2016-04-11T07:15:55.888Z,947.13
2016-04-11T07:16:55.828Z,947.15
2016-04-11T07:17:55.784Z,947.17
2016-04-11T07:18:55.725Z,947.18
2016-04-11T07:19:55.680Z,947.18
2016-04-11T07:20:55.620Z,947.2
2016-04-11T07:21:55.560Z,947.17
2016-04-11T07:22:55.500Z,947.22
2016-04-11T07:23:55.456Z,947.19
2016-04-11T07:24:55.398Z,947.19
2016-04-11T07:25:55.338Z,947.18
2016-04-11T07:26:55.279Z,947.22
2016-04-11T07:27:55.235Z,947.19
2016-04-11T07:28:55.174Z,947.21
2016-04-11T07:29:55.115Z,947.2
2016-04-11T07:30:55.070Z,947.16
2016-04-11T07:31:55.026Z,947.18
2016-04-11T07:32:54.952Z,947.19
2016-04-11T07:33:54.907Z,947.2
2016-04-11T07:34:54.847Z,947.2
2016-04-11T07:35:54.787Z,947.22
2016-04-11T07:36:54.743Z,947.22
2016-04-11T07:37:54.683Z,947.22
2016-04-11T07:38:54.623Z,947.28
2016-04-11T07:39:54.579Z,947.23
2016-04-11T07:40:54.536Z,947.27
2016-04-11T07:41:54.459Z,947.26
2016-04-11T07:42:54.416Z,947.28
2016-04-11T07:43:54.356Z,947.28
2016-04-11T07:44:54.311Z,947.27
2016-04-11T07:45:54.252Z,947.33
2016-04-11T07:46:54.192Z,947.33
2016-04-11T07:47:54.147Z,947.31
2016-04-11T07:48:54.089Z,947.3
2016-04-11T07:49:54.028Z,947.31
2016-04-11T07:50:53.969Z,947.23
2016-04-11T07:51:53.908Z,947.24
2016-04-11T07:52:53.863Z,947.27
2016-04-11T07:53:53.805Z,947.2
2016-04-11T07:54:53.760Z,947.23
2016-04-11T07:55:53.701Z,947.24
2016-04-11T07:56:53.641Z,947.25
2016-04-11T07:57:53.596Z,947.2
2016-04-11T07:58:53.537Z,947.2
2016-04-11T07:59:53.477Z,947.21
2016-04-11T08:00:53.417Z,947.21
2016-04-11T08:01:53.373Z,947.19
2016-04-11T08:02:53.313Z,947.19
2016-04-11T08:03:53.269Z,947.18
2016-04-11T08:04:53.209Z,947.15
2016-04-11T08:05:53.149Z,947.21
2016-04-11T08:06:53.089Z,947.24
2016-04-11T08:07:53.045Z,947.17
2016-04-11T08:08:52.990Z,947.18
2016-04-11T08:09:52.946Z,947.18
2016-04-11T08:10:52.887Z,947.22
2016-04-11T08:11:52.827Z,947.21
2016-04-11T08:12:52.766Z,947.21
2016-04-11T08:13:52.707Z,947.22
2016-04-11T08:14:52.663Z,947.22
2016-04-11T08:15:52.603Z,947.21
2016-04-11T08:16:52.543Z,947.2
2016-04-11T08:17:52.504Z,947.19
2016-04-11T08:18:52.444Z,947.2
2016-04-11T08:19:52.399Z,947.19
2016-04-11T08:20:52.325Z,947.2
2016-04-11T08:21:52.280Z,947.2
2016-04-11T08:22:52.220Z,947.21
2016-04-11T08:23:52.176Z,947.23
2016-04-11T08:24:52.115Z,947.32
2016-04-11T08:25:52.057Z,947.3
2016-04-11T08:26:51.996Z,947.31
2016-04-11T08:27:51.953Z,947.3
2016-04-11T08:28:51.893Z,947.27
2016-04-11T08:29:51.848Z,947.32
2016-04-11T08:30:51.789Z,947.31
2016-04-11T08:31:51.745Z,947.29
2016-04-11T08:32:51.685Z,947.28
2016-04-11T08:33:51.640Z,947.28
2016-04-11T08:34:51.581Z,947.25
2016-04-11T08:35:51.521Z,947.24
2016-04-11T08:36:51.461Z,947.26
2016-04-11T08:37:51.417Z,947.29
2016-04-11T08:38:51.358Z,947.25
2016-04-11T08:39:51.313Z,947.28
2016-04-11T08:40:51.253Z,947.21
2016-04-11T08:41:51.194Z,947.24
2016-04-11T08:42:51.149Z,947.25
2016-04-11T08:43:51.089Z,947.24
2016-04-11T08:44:51.030Z,947.28
2016-04-11T08:45:50.985Z,947.33
2016-04-11T08:46:50.925Z,947.28
2016-04-11T08:47:50.866Z,947.25
2016-04-11T08:48:50.821Z,947.16
2016-04-11T08:49:50.762Z,947.12
2016-04-11T08:50:50.718Z,947.14
2016-04-11T08:51:50.674Z,947.11
2016-04-11T08:52:50.598Z,947.14
2016-04-11T08:53:50.553Z,947.14
2016-04-11T08:54:50.494Z,947.15
2016-04-11T08:55:50.465Z,947.17
2016-04-11T08:56:50.390Z,947.22
2016-04-11T08:57:50.345Z,947.18
2016-04-11T08:58:50.286Z,947.18
2016-04-11T08:59:50.226Z,947.2
2016-04-11T09:00:50.181Z,947.15
2016-04-11T09:01:50.123Z,947.19
2016-04-11T09:02:50.078Z,947.15
2016-04-11T09:03:50.034Z,947.13
2016-04-11T09:04:49.973Z,947.12
2016-04-11T09:05:49.914Z,947.08
2016-04-11T09:06:49.854Z,947.11
2016-04-11T09:07:49.810Z,947.09
2016-04-11T09:08:49.750Z,947.13
2016-04-11T09:09:49.706Z,947.1
2016-04-11T09:10:49.662Z,947.13
2016-04-11T09:11:49.602Z,947.07
2016-04-11T09:12:49.558Z,947.06
2016-04-11T09:13:49.514Z,947.05
2016-04-11T09:14:49.438Z,947.05
2016-04-11T09:15:49.394Z,947.01
2016-04-11T09:16:49.335Z,946.98
2016-04-11T09:17:49.290Z,947.01
2016-04-11T09:18:49.230Z,947.02
2016-04-11T09:19:49.186Z,947.06
2016-04-11T09:20:49.141Z,947.06
2016-04-11T09:21:49.082Z,947.08
2016-04-11T09:22:49.038Z,947.07
2016-04-11T09:23:48.979Z,947.04
2016-04-11T09:24:48.918Z,947.01
2016-04-11T09:25:48.874Z,946.93
2016-04-11T09:26:48.830Z,946.95
2016-04-11T09:27:48.770Z,946.93
2016-04-11T09:28:48.726Z,946.95
2016-04-11T09:29:48.666Z,946.94
2016-04-11T09:30:48.623Z,946.92
2016-04-11T09:31:48.578Z,946.9
2016-04-11T09:32:48.518Z,946.89
2016-04-11T09:33:48.473Z,946.87
2016-04-11T09:34:48.429Z,946.88
2016-04-11T09:35:48.354Z,946.85
2016-04-11T09:36:48.310Z,946.86
2016-04-11T09:37:48.266Z,946.85
2016-04-11T09:38:48.222Z,946.85
2016-04-11T09:39:48.162Z,946.87
2016-04-11T09:40:48.102Z,946.85
2016-04-11T09:41:48.073Z,946.85
2016-04-11T09:42:47.997Z,946.85
2016-04-11T09:43:47.954Z,946.87
2016-04-11T09:44:47.910Z,946.85
2016-04-11T09:45:47.865Z,946.85
2016-04-11T09:46:47.805Z,946.85
2016-04-11T09:47:47.746Z,946.91
2016-04-11T09:48:47.702Z,946.87
2016-04-11T09:49:47.658Z,946.84
2016-04-11T09:50:47.597Z,946.81
2016-04-11T09:51:47.554Z,946.77
2016-04-11T09:52:47.494Z,946.79
2016-04-11T09:53:47.449Z,946.79
2016-04-11T09:54:47.405Z,946.75
2016-04-11T09:55:47.345Z,946.7
2016-04-11T09:56:47.302Z,946.67
2016-04-11T09:57:47.257Z,946.67
2016-04-11T09:58:47.212Z,946.59
2016-04-11T09:59:47.153Z,946.66
2016-04-11T10:00:47.109Z,946.65
2016-04-11T10:01:47.049Z,946.64
2016-04-11T10:02:47.004Z,946.65
2016-04-11T10:03:46.961Z,946.65
2016-04-11T10:04:46.916Z,946.63
2016-04-11T10:05:46.857Z,946.64
2016-04-11T10:06:46.812Z,946.62
2016-04-11T10:07:46.753Z,946.6
2016-04-11T10:08:46.708Z,946.6
2016-04-11T10:09:46.665Z,946.61
2016-04-11T10:10:46.605Z,946.65
2016-04-11T10:11:46.561Z,946.61
2016-04-11T10:12:46.516Z,946.65
2016-04-11T10:13:46.456Z,946.62
2016-04-11T10:14:46.411Z,946.64
2016-04-11T10:15:46.383Z,946.64
2016-04-11T10:16:46.324Z,946.61
2016-04-11T10:17:46.263Z,946.57
2016-04-11T10:18:46.219Z,946.58
2016-04-11T10:19:46.175Z,946.57
2016-04-11T10:20:46.116Z,946.6
2016-04-11T10:21:46.071Z,946.54
2016-04-11T10:22:46.027Z,946.58
2016-04-11T10:23:45.983Z,946.57
2016-04-11T10:24:45.923Z,946.54
2016-04-11T10:25:45.879Z,946.56
2016-04-11T10:26:45.835Z,946.53
2016-04-11T10:27:45.790Z,946.46
2016-04-11T10:28:45.732Z,946.43
2016-04-11T10:29:45.687Z,946.42
2016-04-11T10:30:45.659Z,946.41
2016-04-11T10:31:45.598Z,946.36
2016-04-11T10:32:45.539Z,946.37
2016-04-11T10:33:45.495Z,946.36
2016-04-11T10:34:45.435Z,946.35
2016-04-11T10:35:45.406Z,946.36
2016-04-11T10:36:45.346Z,946.37
2016-04-11T10:37:45.302Z,946.32
2016-04-11T10:38:45.242Z,946.33
2016-04-11T10:39:45.198Z,946.32
2016-04-11T10:40:45.154Z,946.29
2016-04-11T10:41:45.094Z,946.3
2016-04-11T10:42:45.066Z,946.25
2016-04-11T10:43:45.006Z,946.28
2016-04-11T10:44:44.961Z,946.28
2016-04-11T10:45:44.917Z,946.25
2016-04-11T10:46:44.858Z,946.29
2016-04-11T10:47:44.829Z,946.27
2016-04-11T10:48:44.769Z,946.22
2016-04-11T10:49:44.725Z,946.22
2016-04-11T10:50:44.680Z,946.21
2016-04-11T10:51:44.621Z,946.23
2016-04-11T10:52:44.577Z,946.2
2016-04-11T10:53:44.533Z,946.23
2016-04-11T10:54:44.488Z,946.19
2016-04-11T10:55:44.444Z,946.19
2016-04-11T10:56:44.384Z,946.18
2016-04-11T10:57:44.341Z,946.21
2016-04-11T10:58:44.343Z,946.17
2016-04-11T10:59:44.252Z,946.2
2016-04-11T11:00:44.207Z,946.16
2016-04-11T11:01:44.163Z,946.14
2016-04-11T11:02:44.119Z,946.12
2016-04-11T11:03:44.060Z,946.13
2016-04-11T11:04:44.016Z,946.13
2016-04-11T11:05:43.971Z,946.11
2016-04-11T11:06:43.926Z,946.13
2016-04-11T11:07:43.883Z,946.07
2016-04-11T11:08:43.822Z,946.05
2016-04-11T11:09:43.779Z,946.02
2016-04-11T11:10:43.735Z,946.05
2016-04-11T11:11:43.690Z,946.05
2016-04-11T11:12:43.646Z,946.02
2016-04-11T11:13:43.603Z,946.03
2016-04-11T11:14:43.542Z,946
2016-04-11T11:15:43.514Z,946
2016-04-11T11:16:43.453Z,946.01
2016-04-11T11:17:43.426Z,946.02
2016-04-11T11:18:43.366Z,945.98
2016-04-11T11:19:43.336Z,946.01
2016-04-11T11:20:43.293Z,945.98
2016-04-11T11:21:43.233Z,945.98
2016-04-11T11:22:43.188Z,945.95
2016-04-11T11:23:43.129Z,945.93
2016-04-11T11:24:43.085Z,945.93
2016-04-11T11:25:43.041Z,945.9
2016-04-11T11:26:42.996Z,945.91
2016-04-11T11:27:42.952Z,945.95
2016-04-11T11:28:42.908Z,945.97
2016-04-11T11:29:42.849Z,945.95
2016-04-11T11:30:42.804Z,945.96
2016-04-11T11:31:42.760Z,945.98
2016-04-11T11:32:42.715Z,945.98
2016-04-11T11:33:42.671Z,945.95
2016-04-11T11:34:42.626Z,945.95
2016-04-11T11:35:42.583Z,945.92
2016-04-11T11:36:42.539Z,945.98
2016-04-11T11:37:42.479Z,945.94
2016-04-11T11:38:42.435Z,945.96
2016-04-11T11:39:42.390Z,945.93
2016-04-11T11:40:42.347Z,945.98
2016-04-11T11:41:42.303Z,945.94
2016-04-11T11:42:42.258Z,945.92
2016-04-11T11:43:42.214Z,945.89
2016-04-11T11:44:42.186Z,945.9
2016-04-11T11:45:42.111Z,945.85
2016-04-11T11:46:42.066Z,945.93
2016-04-11T11:47:42.022Z,945.84
2016-04-11T11:48:41.978Z,945.86
2016-04-11T11:49:41.933Z,945.89
2016-04-11T11:50:41.889Z,945.88
2016-04-11T11:51:41.844Z,945.87
2016-04-11T11:52:41.786Z,945.85
2016-04-11T11:53:41.757Z,945.87
2016-04-11T11:54:41.713Z,945.86
2016-04-11T11:55:41.652Z,945.81
2016-04-11T11:56:41.608Z,945.8
2016-04-11T11:57:41.564Z,945.8
2016-04-11T11:58:41.520Z,945.78
2016-04-11T11:59:41.476Z,945.72
2016-04-11T12:00:41.431Z,945.69
2016-04-11T12:01:41.372Z,945.68
2016-04-11T12:02:41.343Z,945.61
2016-04-11T12:03:41.283Z,945.65
2016-04-11T12:04:41.240Z,945.68
2016-04-11T12:05:41.196Z,945.68
2016-04-11T12:06:41.151Z,945.73
2016-04-11T12:07:41.106Z,945.7
2016-04-11T12:08:41.063Z,945.67
2016-04-11T12:09:41.017Z,945.72
2016-04-11T12:10:40.959Z,945.66
2016-04-11T12:11:40.930Z,945.66
2016-04-11T12:12:40.870Z,945.68
2016-04-11T12:13:40.826Z,945.67
2016-04-11T12:14:40.798Z,945.69
2016-04-11T12:15:40.737Z,945.71
2016-04-11T12:16:40.693Z,945.74
2016-04-11T12:17:40.650Z,945.7
2016-04-11T12:18:40.605Z,945.7
2016-04-11T12:19:40.561Z,945.67
2016-04-11T12:20:40.516Z,945.71
2016-04-11T12:21:40.472Z,945.69
2016-04-11T12:22:40.428Z,945.7
2016-04-11T12:23:40.384Z,945.67
2016-04-11T12:24:40.340Z,945.68
2016-04-11T12:25:40.296Z,945.69
2016-04-11T12:26:40.267Z,945.68
2016-04-11T12:27:40.191Z,945.67
2016-04-11T12:28:40.163Z,945.7
2016-04-11T12:29:40.118Z,945.65
2016-04-11T12:30:40.060Z,945.63